sensor_id;sensor_type;location;lat;lon;timestamp;temperature;humidity
7676;DHT22;3880;51.464;-2.566;2022-11-24T00:00:51;8.00;99.90
7676;DHT22;3880;51.464;-2.566;2022-11-24T00:03:18;8.00;99.90
7676;DHT22;3880;51.464;-2.566;2022-11-24T00:05:46;8.00;99.90
7676;DHT22;3880;51.464;-2.566;2022-11-24T00:08:13;8.10;99.90
7676;DHT22;3880;51.464;-2.566;2022-11-24T00:10:40;8.10;99.90
7676;DHT22;3880;51.464;-2.566;2022-11-24T00:13:07;8.00;99.90
7676;DHT22;3880;51.464;-2.566;2022-11-24T00:18:13;8.00;99.90
7676;DHT22;3880;51.464;-2.566;2022-11-24T00:20:40;8.00;99.90
7676;DHT22;3880;51.464;-2.566;2022-11-24T00:23:08;7.90;99.90
7676;DHT22;3880;51.464;-2.566;2022-11-24T00:25:36;7.90;99.90
7676;DHT22;3880;51.464;-2.566;2022-11-24T00:28:04;7.90;99.90
7676;DHT22;3880;51.464;-2.566;2022-11-24T00:30:32;7.90;99.90
7676;DHT22;3880;51.464;-2.566;2022-11-24T00:32:59;7.80;99.90
7676;DHT22;3880;51.464;-2.566;2022-11-24T00:35:28;7.80;99.90
7676;DHT22;3880;51.464;-2.566;2022-11-24T00:37:55;7.90;99.90
7676;DHT22;3880;51.464;-2.566;2022-11-24T00:40:22;7.90;99.90
7676;DHT22;3880;51.464;-2.566;2022-11-24T00:42:49;7.80;99.90
7676;DHT22;3880;51.464;-2.566;2022-11-24T00:45:16;7.80;99.90
7676;DHT22;3880;51.464;-2.566;2022-11-24T00:47:43;7.80;99.90
7676;DHT22;3880;51.464;-2.566;2022-11-24T00:50:10;7.70;99.90
7676;DHT22;3880;51.464;-2.566;2022-11-24T00:52:39;7.70;99.90
7676;DHT22;3880;51.464;-2.566;2022-11-24T00:55:06;7.70;99.90
7676;DHT22;3880;51.464;-2.566;2022-11-24T00:57:34;7.70;99.90
7676;DHT22;3880;51.464;-2.566;2022-11-24T01:00:01;7.70;99.90
7676;DHT22;3880;51.464;-2.566;2022-11-24T01:02:28;7.70;99.90
7676;DHT22;3880;51.464;-2.566;2022-11-24T01:04:55;7.70;99.90
7676;DHT22;3880;51.464;-2.566;2022-11-24T01:07:22;7.60;99.90
7676;DHT22;3880;51.464;-2.566;2022-11-24T01:09:51;7.60;99.90
7676;DHT22;3880;51.464;-2.566;2022-11-24T01:12:18;7.60;99.90
7676;DHT22;3880;51.464;-2.566;2022-11-24T01:14:45;7.60;99.90
7676;DHT22;3880;51.464;-2.566;2022-11-24T01:17:12;7.50;99.90
7676;DHT22;3880;51.464;-2.566;2022-11-24T01:19:41;7.50;99.90
7676;DHT22;3880;51.464;-2.566;2022-11-24T01:22:08;7.50;99.90
7676;DHT22;3880;51.464;-2.566;2022-11-24T01:24:35;7.50;99.90
7676;DHT22;3880;51.464;-2.566;2022-11-24T01:27:04;7.50;99.90
7676;DHT22;3880;51.464;-2.566;2022-11-24T01:29:31;7.60;99.90
7676;DHT22;3880;51.464;-2.566;2022-11-24T01:31:58;7.60;99.90
7676;DHT22;3880;51.464;-2.566;2022-11-24T01:34:26;7.70;99.90
7676;DHT22;3880;51.464;-2.566;2022-11-24T01:36:53;7.70;99.90
7676;DHT22;3880;51.464;-2.566;2022-11-24T01:39:20;7.70;99.90
7676;DHT22;3880;51.464;-2.566;2022-11-24T01:41:47;7.70;99.90
7676;DHT22;3880;51.464;-2.566;2022-11-24T01:44:23;7.70;99.90
7676;DHT22;3880;51.464;-2.566;2022-11-24T01:46:53;7.70;99.90
7676;DHT22;3880;51.464;-2.566;2022-11-24T01:49:26;7.70;99.90
7676;DHT22;3880;51.464;-2.566;2022-11-24T01:51:58;7.80;99.90
7676;DHT22;3880;51.464;-2.566;2022-11-24T01:54:29;7.80;99.90
7676;DHT22;3880;51.464;-2.566;2022-11-24T01:56:59;7.70;99.90
7676;DHT22;3880;51.464;-2.566;2022-11-24T01:59:30;7.70;99.90
7676;DHT22;3880;51.464;-2.566;2022-11-24T02:01:58;7.80;99.90
7676;DHT22;3880;51.464;-2.566;2022-11-24T02:04:29;7.80;99.90
7676;DHT22;3880;51.464;-2.566;2022-11-24T02:06:59;7.80;99.90
7676;DHT22;3880;51.464;-2.566;2022-11-24T02:09:32;7.80;99.90
7676;DHT22;3880;51.464;-2.566;2022-11-24T02:12:01;7.80;99.90
7676;DHT22;3880;51.464;-2.566;2022-11-24T02:14:30;7.90;99.90
7676;DHT22;3880;51.464;-2.566;2022-11-24T02:16:57;7.90;99.90
7676;DHT22;3880;51.464;-2.566;2022-11-24T02:19:34;7.90;99.90
7676;DHT22;3880;51.464;-2.566;2022-11-24T02:22:03;8.00;99.90
7676;DHT22;3880;51.464;-2.566;2022-11-24T02:24:39;8.00;99.90
7676;DHT22;3880;51.464;-2.566;2022-11-24T02:27:09;8.00;99.90
7676;DHT22;3880;51.464;-2.566;2022-11-24T02:29:36;8.00;99.90
7676;DHT22;3880;51.464;-2.566;2022-11-24T02:32:05;8.00;99.90
7676;DHT22;3880;51.464;-2.566;2022-11-24T02:34:33;7.90;99.90
7676;DHT22;3880;51.464;-2.566;2022-11-24T02:37:00;8.00;99.90
7676;DHT22;3880;51.464;-2.566;2022-11-24T02:39:28;8.00;99.90
7676;DHT22;3880;51.464;-2.566;2022-11-24T02:41:59;8.00;99.90
7676;DHT22;3880;51.464;-2.566;2022-11-24T02:44:33;7.90;99.90
7676;DHT22;3880;51.464;-2.566;2022-11-24T02:47:02;7.90;99.90
7676;DHT22;3880;51.464;-2.566;2022-11-24T02:49:29;7.90;99.90
7676;DHT22;3880;51.464;-2.566;2022-11-24T02:51:56;7.80;99.90
7676;DHT22;3880;51.464;-2.566;2022-11-24T02:54:23;7.80;99.90
7676;DHT22;3880;51.464;-2.566;2022-11-24T02:56:51;7.70;99.90
7676;DHT22;3880;51.464;-2.566;2022-11-24T02:59:20;7.70;99.90
7676;DHT22;3880;51.464;-2.566;2022-11-24T03:01:49;7.70;99.90
7676;DHT22;3880;51.464;-2.566;2022-11-24T03:04:16;7.70;99.90
7676;DHT22;3880;51.464;-2.566;2022-11-24T03:06:43;7.60;99.90
7676;DHT22;3880;51.464;-2.566;2022-11-24T03:09:10;7.60;99.90
7676;DHT22;3880;51.464;-2.566;2022-11-24T03:11:38;7.60;99.90
7676;DHT22;3880;51.464;-2.566;2022-11-24T03:14:05;7.60;99.90
7676;DHT22;3880;51.464;-2.566;2022-11-24T03:16:33;7.60;99.90
7676;DHT22;3880;51.464;-2.566;2022-11-24T03:19:01;7.60;99.90
7676;DHT22;3880;51.464;-2.566;2022-11-24T03:21:28;7.60;99.90
7676;DHT22;3880;51.464;-2.566;2022-11-24T03:23:56;7.60;99.90
7676;DHT22;3880;51.464;-2.566;2022-11-24T03:26:24;7.60;99.90
7676;DHT22;3880;51.464;-2.566;2022-11-24T03:28:53;7.60;99.90
7676;DHT22;3880;51.464;-2.566;2022-11-24T03:31:22;7.60;99.90
7676;DHT22;3880;51.464;-2.566;2022-11-24T03:33:49;7.60;99.90
7676;DHT22;3880;51.464;-2.566;2022-11-24T03:36:18;7.60;99.90
7676;DHT22;3880;51.464;-2.566;2022-11-24T03:38:46;7.60;99.90
7676;DHT22;3880;51.464;-2.566;2022-11-24T03:41:13;7.60;99.90
7676;DHT22;3880;51.464;-2.566;2022-11-24T03:43:41;7.60;99.90
7676;DHT22;3880;51.464;-2.566;2022-11-24T03:46:08;7.50;99.90
7676;DHT22;3880;51.464;-2.566;2022-11-24T03:48:35;7.50;99.90
7676;DHT22;3880;51.464;-2.566;2022-11-24T03:51:02;7.40;99.90
7676;DHT22;3880;51.464;-2.566;2022-11-24T03:53:32;7.30;99.90
7676;DHT22;3880;51.464;-2.566;2022-11-24T03:55:59;7.30;99.90
7676;DHT22;3880;51.464;-2.566;2022-11-24T03:58:27;7.30;99.90
7676;DHT22;3880;51.464;-2.566;2022-11-24T04:00:55;7.20;99.90
7676;DHT22;3880;51.464;-2.566;2022-11-24T04:03:22;7.20;99.90
7676;DHT22;3880;51.464;-2.566;2022-11-24T04:05:49;7.20;99.90
7676;DHT22;3880;51.464;-2.566;2022-11-24T04:08:17;7.10;99.90
7676;DHT22;3880;51.464;-2.566;2022-11-24T04:10:49;7.10;99.90
7676;DHT22;3880;51.464;-2.566;2022-11-24T04:13:18;7.10;99.90
7676;DHT22;3880;51.464;-2.566;2022-11-24T04:15:44;7.00;99.90
7676;DHT22;3880;51.464;-2.566;2022-11-24T04:18:12;7.00;99.90
7676;DHT22;3880;51.464;-2.566;2022-11-24T04:20:40;7.00;99.90
7676;DHT22;3880;51.464;-2.566;2022-11-24T04:23:07;7.10;99.90
7676;DHT22;3880;51.464;-2.566;2022-11-24T04:25:36;7.10;99.90
7676;DHT22;3880;51.464;-2.566;2022-11-24T04:28:04;7.10;99.90
7676;DHT22;3880;51.464;-2.566;2022-11-24T04:30:31;7.10;99.90
7676;DHT22;3880;51.464;-2.566;2022-11-24T04:32:58;7.10;99.90
7676;DHT22;3880;51.464;-2.566;2022-11-24T04:35:26;7.10;99.90
7676;DHT22;3880;51.464;-2.566;2022-11-24T04:37:57;7.10;99.90
7676;DHT22;3880;51.464;-2.566;2022-11-24T04:40:27;7.10;99.90
7676;DHT22;3880;51.464;-2.566;2022-11-24T04:42:57;7.10;99.90
7676;DHT22;3880;51.464;-2.566;2022-11-24T04:45:26;7.10;99.90
7676;DHT22;3880;51.464;-2.566;2022-11-24T04:47:53;7.20;99.90
7676;DHT22;3880;51.464;-2.566;2022-11-24T04:50:21;7.20;99.90
7676;DHT22;3880;51.464;-2.566;2022-11-24T04:52:48;7.30;99.90
7676;DHT22;3880;51.464;-2.566;2022-11-24T04:55:15;7.40;99.90
7676;DHT22;3880;51.464;-2.566;2022-11-24T04:57:42;7.40;99.90
7676;DHT22;3880;51.464;-2.566;2022-11-24T05:00:11;7.40;99.90
7676;DHT22;3880;51.464;-2.566;2022-11-24T05:02:40;7.40;99.90
7676;DHT22;3880;51.464;-2.566;2022-11-24T05:05:08;7.40;99.90
7676;DHT22;3880;51.464;-2.566;2022-11-24T05:07:35;7.30;99.90
7676;DHT22;3880;51.464;-2.566;2022-11-24T05:10:03;7.30;99.90
7676;DHT22;3880;51.464;-2.566;2022-11-24T05:12:53;7.20;99.90
7676;DHT22;3880;51.464;-2.566;2022-11-24T05:15:21;7.10;99.90
7676;DHT22;3880;51.464;-2.566;2022-11-24T05:17:50;7.10;99.90
7676;DHT22;3880;51.464;-2.566;2022-11-24T05:20:17;6.90;99.90
7676;DHT22;3880;51.464;-2.566;2022-11-24T05:22:44;6.80;99.90
7676;DHT22;3880;51.464;-2.566;2022-11-24T05:25:12;6.80;99.90
7676;DHT22;3880;51.464;-2.566;2022-11-24T05:27:39;6.80;99.90
7676;DHT22;3880;51.464;-2.566;2022-11-24T05:30:08;6.80;99.90
7676;DHT22;3880;51.464;-2.566;2022-11-24T05:32:35;6.70;99.90
7676;DHT22;3880;51.464;-2.566;2022-11-24T05:35:04;6.70;99.90
7676;DHT22;3880;51.464;-2.566;2022-11-24T05:37:31;6.80;99.90
7676;DHT22;3880;51.464;-2.566;2022-11-24T05:39:59;6.80;99.90
7676;DHT22;3880;51.464;-2.566;2022-11-24T05:42:26;6.80;99.90
7676;DHT22;3880;51.464;-2.566;2022-11-24T05:45:11;6.70;99.90
7676;DHT22;3880;51.464;-2.566;2022-11-24T05:47:39;6.80;99.90
7676;DHT22;3880;51.464;-2.566;2022-11-24T05:50:10;6.80;99.90
7676;DHT22;3880;51.464;-2.566;2022-11-24T05:52:38;6.70;99.90
7676;DHT22;3880;51.464;-2.566;2022-11-24T05:55:06;6.70;99.90
7676;DHT22;3880;51.464;-2.566;2022-11-24T05:57:34;6.70;99.90
7676;DHT22;3880;51.464;-2.566;2022-11-24T06:00:02;6.60;99.90
7676;DHT22;3880;51.464;-2.566;2022-11-24T06:02:29;6.60;99.90
7676;DHT22;3880;51.464;-2.566;2022-11-24T06:04:57;6.60;99.90
7676;DHT22;3880;51.464;-2.566;2022-11-24T06:07:26;6.60;99.90
7676;DHT22;3880;51.464;-2.566;2022-11-24T06:09:53;6.50;99.90
7676;DHT22;3880;51.464;-2.566;2022-11-24T06:12:20;6.50;99.90
7676;DHT22;3880;51.464;-2.566;2022-11-24T06:14:48;6.40;99.90
7676;DHT22;3880;51.464;-2.566;2022-11-24T06:17:15;6.40;99.90
7676;DHT22;3880;51.464;-2.566;2022-11-24T06:19:43;6.50;99.90
7676;DHT22;3880;51.464;-2.566;2022-11-24T06:22:12;6.50;99.90
7676;DHT22;3880;51.464;-2.566;2022-11-24T06:24:40;6.60;99.90
7676;DHT22;3880;51.464;-2.566;2022-11-24T06:27:08;6.60;99.90
7676;DHT22;3880;51.464;-2.566;2022-11-24T06:29:35;6.60;99.90
7676;DHT22;3880;51.464;-2.566;2022-11-24T06:32:02;6.60;99.90
7676;DHT22;3880;51.464;-2.566;2022-11-24T06:34:32;6.70;99.90
7676;DHT22;3880;51.464;-2.566;2022-11-24T06:36:59;6.70;99.90
7676;DHT22;3880;51.464;-2.566;2022-11-24T06:39:26;6.70;99.90
7676;DHT22;3880;51.464;-2.566;2022-11-24T06:41:54;6.70;99.90
7676;DHT22;3880;51.464;-2.566;2022-11-24T06:44:21;6.70;99.90
7676;DHT22;3880;51.464;-2.566;2022-11-24T06:46:48;6.70;99.90
7676;DHT22;3880;51.464;-2.566;2022-11-24T06:49:15;6.80;99.90
7676;DHT22;3880;51.464;-2.566;2022-11-24T06:51:43;6.80;99.90
7676;DHT22;3880;51.464;-2.566;2022-11-24T06:54:13;6.90;99.90
7676;DHT22;3880;51.464;-2.566;2022-11-24T06:56:41;7.10;99.90
7676;DHT22;3880;51.464;-2.566;2022-11-24T06:59:16;7.10;99.90
7676;DHT22;3880;51.464;-2.566;2022-11-24T07:01:43;7.10;99.90
7676;DHT22;3880;51.464;-2.566;2022-11-24T07:04:10;7.20;99.90
7676;DHT22;3880;51.464;-2.566;2022-11-24T07:06:37;7.30;99.90
7676;DHT22;3880;51.464;-2.566;2022-11-24T07:09:06;7.40;99.90
7676;DHT22;3880;51.464;-2.566;2022-11-24T07:11:33;7.40;99.90
7676;DHT22;3880;51.464;-2.566;2022-11-24T07:14:01;7.50;99.90
7676;DHT22;3880;51.464;-2.566;2022-11-24T07:16:30;7.60;99.90
7676;DHT22;3880;51.464;-2.566;2022-11-24T07:18:58;7.60;99.90
7676;DHT22;3880;51.464;-2.566;2022-11-24T07:21:26;7.70;99.90
7676;DHT22;3880;51.464;-2.566;2022-11-24T07:23:55;7.70;99.90
7676;DHT22;3880;51.464;-2.566;2022-11-24T07:26:23;7.70;99.90
7676;DHT22;3880;51.464;-2.566;2022-11-24T07:28:50;7.70;99.90
7676;DHT22;3880;51.464;-2.566;2022-11-24T07:31:19;7.70;99.90
7676;DHT22;3880;51.464;-2.566;2022-11-24T07:33:52;7.70;99.90
7676;DHT22;3880;51.464;-2.566;2022-11-24T07:36:20;7.70;99.90
7676;DHT22;3880;51.464;-2.566;2022-11-24T07:38:47;7.70;99.90
7676;DHT22;3880;51.464;-2.566;2022-11-24T07:41:16;7.60;99.90
7676;DHT22;3880;51.464;-2.566;2022-11-24T07:43:44;7.60;99.90
7676;DHT22;3880;51.464;-2.566;2022-11-24T07:46:13;7.70;99.90
7676;DHT22;3880;51.464;-2.566;2022-11-24T07:48:41;7.70;99.90
7676;DHT22;3880;51.464;-2.566;2022-11-24T07:51:10;7.70;99.90
7676;DHT22;3880;51.464;-2.566;2022-11-24T07:53:37;7.80;99.90
7676;DHT22;3880;51.464;-2.566;2022-11-24T07:56:05;7.70;99.90
7676;DHT22;3880;51.464;-2.566;2022-11-24T07:58:34;7.80;99.90
7676;DHT22;3880;51.464;-2.566;2022-11-24T08:01:08;7.80;99.90
7676;DHT22;3880;51.464;-2.566;2022-11-24T08:03:36;7.80;99.90
7676;DHT22;3880;51.464;-2.566;2022-11-24T08:06:06;7.80;99.90
7676;DHT22;3880;51.464;-2.566;2022-11-24T08:08:35;8.10;99.90
7676;DHT22;3880;51.464;-2.566;2022-11-24T08:11:06;8.40;99.90
7676;DHT22;3880;51.464;-2.566;2022-11-24T08:13:34;8.60;99.90
7676;DHT22;3880;51.464;-2.566;2022-11-24T08:16:06;8.80;99.90
7676;DHT22;3880;51.464;-2.566;2022-11-24T08:18:34;9.00;99.90
7676;DHT22;3880;51.464;-2.566;2022-11-24T08:21:02;9.00;99.90
7676;DHT22;3880;51.464;-2.566;2022-11-24T08:23:30;9.10;99.90
7676;DHT22;3880;51.464;-2.566;2022-11-24T08:26:02;9.20;99.90
7676;DHT22;3880;51.464;-2.566;2022-11-24T08:28:34;9.20;99.90
7676;DHT22;3880;51.464;-2.566;2022-11-24T08:31:04;9.30;99.90
7676;DHT22;3880;51.464;-2.566;2022-11-24T08:33:31;9.30;99.90
7676;DHT22;3880;51.464;-2.566;2022-11-24T08:36:02;9.50;99.90
7676;DHT22;3880;51.464;-2.566;2022-11-24T08:38:30;9.50;99.90
7676;DHT22;3880;51.464;-2.566;2022-11-24T08:41:01;9.60;99.90
7676;DHT22;3880;51.464;-2.566;2022-11-24T08:43:29;9.70;99.90
7676;DHT22;3880;51.464;-2.566;2022-11-24T08:46:11;9.80;99.90
7676;DHT22;3880;51.464;-2.566;2022-11-24T08:48:41;9.90;99.90
7676;DHT22;3880;51.464;-2.566;2022-11-24T08:51:15;9.90;99.90
7676;DHT22;3880;51.464;-2.566;2022-11-24T08:53:42;10.00;99.90
7676;DHT22;3880;51.464;-2.566;2022-11-24T08:56:12;10.10;99.90
7676;DHT22;3880;51.464;-2.566;2022-11-24T08:58:40;10.10;99.90
7676;DHT22;3880;51.464;-2.566;2022-11-24T09:01:08;10.20;99.90
7676;DHT22;3880;51.464;-2.566;2022-11-24T09:03:36;10.20;99.90
7676;DHT22;3880;51.464;-2.566;2022-11-24T09:06:04;10.30;99.90
7676;DHT22;3880;51.464;-2.566;2022-11-24T09:08:31;10.40;99.90
7676;DHT22;3880;51.464;-2.566;2022-11-24T09:10:59;10.50;99.90
7676;DHT22;3880;51.464;-2.566;2022-11-24T09:13:28;10.60;99.90
7676;DHT22;3880;51.464;-2.566;2022-11-24T09:15:56;10.70;99.90
7676;DHT22;3880;51.464;-2.566;2022-11-24T09:18:23;10.80;99.90
7676;DHT22;3880;51.464;-2.566;2022-11-24T09:20:50;10.90;99.90
7676;DHT22;3880;51.464;-2.566;2022-11-24T09:23:17;10.90;99.90
7676;DHT22;3880;51.464;-2.566;2022-11-24T09:25:45;11.10;99.90
7676;DHT22;3880;51.464;-2.566;2022-11-24T09:28:12;11.20;99.90
7676;DHT22;3880;51.464;-2.566;2022-11-24T09:30:41;11.20;99.90
7676;DHT22;3880;51.464;-2.566;2022-11-24T09:33:08;11.20;99.90
7676;DHT22;3880;51.464;-2.566;2022-11-24T09:35:36;11.50;99.90
7676;DHT22;3880;51.464;-2.566;2022-11-24T09:38:03;11.80;99.90
7676;DHT22;3880;51.464;-2.566;2022-11-24T09:40:31;12.00;99.90
7676;DHT22;3880;51.464;-2.566;2022-11-24T09:42:59;12.00;99.90
7676;DHT22;3880;51.464;-2.566;2022-11-24T09:45:49;12.10;99.90
7676;DHT22;3880;51.464;-2.566;2022-11-24T09:48:22;12.10;99.90
7676;DHT22;3880;51.464;-2.566;2022-11-24T09:50:52;12.00;99.90
7676;DHT22;3880;51.464;-2.566;2022-11-24T09:53:28;11.90;99.90
7676;DHT22;3880;51.464;-2.566;2022-11-24T09:55:59;11.80;99.90
7676;DHT22;3880;51.464;-2.566;2022-11-24T09:58:34;11.80;99.90
7676;DHT22;3880;51.464;-2.566;2022-11-24T10:01:13;11.90;99.90
7676;DHT22;3880;51.464;-2.566;2022-11-24T10:03:43;12.10;99.90
7676;DHT22;3880;51.464;-2.566;2022-11-24T10:06:19;12.20;99.90
7676;DHT22;3880;51.464;-2.566;2022-11-24T10:09:06;12.20;99.90
7676;DHT22;3880;51.464;-2.566;2022-11-24T10:11:38;12.10;99.90
7676;DHT22;3880;51.464;-2.566;2022-11-24T10:14:48;12.10;99.90
7676;DHT22;3880;51.464;-2.566;2022-11-24T10:17:31;12.20;99.90
7676;DHT22;3880;51.464;-2.566;2022-11-24T10:20:08;12.30;99.90
7676;DHT22;3880;51.464;-2.566;2022-11-24T10:22:43;12.40;99.90
7676;DHT22;3880;51.464;-2.566;2022-11-24T10:25:20;12.60;99.90
7676;DHT22;3880;51.464;-2.566;2022-11-24T10:27:56;12.70;99.90
7676;DHT22;3880;51.464;-2.566;2022-11-24T10:30:24;12.80;99.90
7676;DHT22;3880;51.464;-2.566;2022-11-24T10:32:56;12.80;99.90
7676;DHT22;3880;51.464;-2.566;2022-11-24T10:35:28;12.60;99.90
7676;DHT22;3880;51.464;-2.566;2022-11-24T10:38:06;12.40;99.90
7676;DHT22;3880;51.464;-2.566;2022-11-24T10:40:39;12.10;99.90
7676;DHT22;3880;51.464;-2.566;2022-11-24T10:43:09;12.10;99.90
7676;DHT22;3880;51.464;-2.566;2022-11-24T10:45:37;12.00;99.90
7676;DHT22;3880;51.464;-2.566;2022-11-24T10:48:11;12.00;99.90
7676;DHT22;3880;51.464;-2.566;2022-11-24T10:50:42;12.00;99.90
7676;DHT22;3880;51.464;-2.566;2022-11-24T10:53:15;12.00;99.90
7676;DHT22;3880;51.464;-2.566;2022-11-24T10:55:58;12.10;99.90
7676;DHT22;3880;51.464;-2.566;2022-11-24T10:58:27;12.30;99.90
7676;DHT22;3880;51.464;-2.566;2022-11-24T11:00:57;12.40;99.90
7676;DHT22;3880;51.464;-2.566;2022-11-24T11:03:27;12.40;99.90
7676;DHT22;3880;51.464;-2.566;2022-11-24T11:06:00;12.40;99.90
7676;DHT22;3880;51.464;-2.566;2022-11-24T11:08:29;12.40;99.90
7676;DHT22;3880;51.464;-2.566;2022-11-24T11:11:19;12.40;99.90
7676;DHT22;3880;51.464;-2.566;2022-11-24T11:13:51;12.40;99.90
7676;DHT22;3880;51.464;-2.566;2022-11-24T11:16:26;12.50;99.90
7676;DHT22;3880;51.464;-2.566;2022-11-24T11:18:57;12.50;99.90
7676;DHT22;3880;51.464;-2.566;2022-11-24T11:21:33;12.60;99.90
7676;DHT22;3880;51.464;-2.566;2022-11-24T11:24:01;12.60;99.90
7676;DHT22;3880;51.464;-2.566;2022-11-24T11:26:36;12.70;99.90
7676;DHT22;3880;51.464;-2.566;2022-11-24T11:29:17;12.80;99.90
7676;DHT22;3880;51.464;-2.566;2022-11-24T11:31:59;12.90;99.90
7676;DHT22;3880;51.464;-2.566;2022-11-24T11:34:30;12.90;99.90
7676;DHT22;3880;51.464;-2.566;2022-11-24T11:37:02;12.90;99.90
7676;DHT22;3880;51.464;-2.566;2022-11-24T11:39:31;13.00;99.90
7676;DHT22;3880;51.464;-2.566;2022-11-24T11:42:09;13.00;99.90
7676;DHT22;3880;51.464;-2.566;2022-11-24T11:44:43;13.10;99.90
7676;DHT22;3880;51.464;-2.566;2022-11-24T11:47:18;13.00;99.90
7676;DHT22;3880;51.464;-2.566;2022-11-24T11:49:48;13.00;99.90
7676;DHT22;3880;51.464;-2.566;2022-11-24T11:52:46;13.10;99.90
7676;DHT22;3880;51.464;-2.566;2022-11-24T11:58:36;13.00;99.90
7676;DHT22;3880;51.464;-2.566;2022-11-24T12:01:11;13.00;99.90
7676;DHT22;3880;51.464;-2.566;2022-11-24T12:04:01;13.00;99.90
7676;DHT22;3880;51.464;-2.566;2022-11-24T12:06:58;12.90;99.90
7676;DHT22;3880;51.464;-2.566;2022-11-24T12:09:37;12.70;99.90
7676;DHT22;3880;51.464;-2.566;2022-11-24T12:15:14;12.30;99.90
7676;DHT22;3880;51.464;-2.566;2022-11-24T12:17:50;12.30;99.90
7676;DHT22;3880;51.464;-2.566;2022-11-24T12:20:31;12.30;99.90
7676;DHT22;3880;51.464;-2.566;2022-11-24T12:23:13;12.30;99.90
7676;DHT22;3880;51.464;-2.566;2022-11-24T12:25:46;12.30;99.90
7676;DHT22;3880;51.464;-2.566;2022-11-24T12:28:27;12.50;99.90
7676;DHT22;3880;51.464;-2.566;2022-11-24T12:31:03;12.60;99.90
7676;DHT22;3880;51.464;-2.566;2022-11-24T12:36:39;12.60;99.90
7676;DHT22;3880;51.464;-2.566;2022-11-24T12:39:18;12.50;99.90
7676;DHT22;3880;51.464;-2.566;2022-11-24T12:41:58;12.40;99.90
7676;DHT22;3880;51.464;-2.566;2022-11-24T12:44:38;12.40;99.90
7676;DHT22;3880;51.464;-2.566;2022-11-24T12:47:14;12.30;99.90
7676;DHT22;3880;51.464;-2.566;2022-11-24T12:49:51;12.20;99.90
7676;DHT22;3880;51.464;-2.566;2022-11-24T12:52:24;12.10;99.90
7676;DHT22;3880;51.464;-2.566;2022-11-24T12:54:54;12.00;99.90
7676;DHT22;3880;51.464;-2.566;2022-11-24T12:57:26;12.00;99.90
7676;DHT22;3880;51.464;-2.566;2022-11-24T13:00:01;12.10;99.90
7676;DHT22;3880;51.464;-2.566;2022-11-24T13:02:40;12.10;99.90
7676;DHT22;3880;51.464;-2.566;2022-11-24T13:05:20;12.00;99.90
7676;DHT22;3880;51.464;-2.566;2022-11-24T13:07:55;12.00;99.90
7676;DHT22;3880;51.464;-2.566;2022-11-24T13:10:30;11.80;99.90
7676;DHT22;3880;51.464;-2.566;2022-11-24T13:12:59;11.70;99.90
7676;DHT22;3880;51.464;-2.566;2022-11-24T13:15:28;11.70;99.90
7676;DHT22;3880;51.464;-2.566;2022-11-24T13:17:56;11.60;99.90
7676;DHT22;3880;51.464;-2.566;2022-11-24T13:20:25;11.70;99.90
7676;DHT22;3880;51.464;-2.566;2022-11-24T13:22:58;11.70;99.90
7676;DHT22;3880;51.464;-2.566;2022-11-24T13:25:28;11.70;99.90
7676;DHT22;3880;51.464;-2.566;2022-11-24T13:27:56;11.70;99.90
7676;DHT22;3880;51.464;-2.566;2022-11-24T13:30:52;11.70;99.90
7676;DHT22;3880;51.464;-2.566;2022-11-24T13:33:31;11.40;99.90
7676;DHT22;3880;51.464;-2.566;2022-11-24T13:38:58;10.20;99.90
7676;DHT22;3880;51.464;-2.566;2022-11-24T13:44:52;10.70;99.90
7676;DHT22;3880;51.464;-2.566;2022-11-24T13:47:34;11.00;99.90
7676;DHT22;3880;51.464;-2.566;2022-11-24T13:50:03;11.10;99.90
7676;DHT22;3880;51.464;-2.566;2022-11-24T13:52:45;11.30;99.90
7676;DHT22;3880;51.464;-2.566;2022-11-24T13:55:27;11.40;99.90
7676;DHT22;3880;51.464;-2.566;2022-11-24T14:03:48;11.60;99.90
7676;DHT22;3880;51.464;-2.566;2022-11-24T14:06:26;11.40;99.90
7676;DHT22;3880;51.464;-2.566;2022-11-24T14:08:54;10.90;99.90
7676;DHT22;3880;51.464;-2.566;2022-11-24T14:11:22;10.60;99.90
7676;DHT22;3880;51.464;-2.566;2022-11-24T14:13:51;10.30;99.90
7676;DHT22;3880;51.464;-2.566;2022-11-24T14:16:19;10.20;99.90
7676;DHT22;3880;51.464;-2.566;2022-11-24T14:18:49;10.00;99.90
7676;DHT22;3880;51.464;-2.566;2022-11-24T14:21:26;10.10;99.90
7676;DHT22;3880;51.464;-2.566;2022-11-24T14:23:56;10.00;99.90
7676;DHT22;3880;51.464;-2.566;2022-11-24T14:26:28;10.00;99.90
7676;DHT22;3880;51.464;-2.566;2022-11-24T14:29:03;10.10;99.90
7676;DHT22;3880;51.464;-2.566;2022-11-24T14:31:30;10.10;99.90
7676;DHT22;3880;51.464;-2.566;2022-11-24T14:34:16;10.10;99.90
7676;DHT22;3880;51.464;-2.566;2022-11-24T14:36:45;10.20;99.90
7676;DHT22;3880;51.464;-2.566;2022-11-24T14:39:16;10.30;99.90
7676;DHT22;3880;51.464;-2.566;2022-11-24T14:41:50;10.50;99.90
7676;DHT22;3880;51.464;-2.566;2022-11-24T14:44:20;10.40;99.90
7676;DHT22;3880;51.464;-2.566;2022-11-24T14:46:49;10.40;99.90
7676;DHT22;3880;51.464;-2.566;2022-11-24T14:49:20;10.50;99.90
7676;DHT22;3880;51.464;-2.566;2022-11-24T14:51:53;10.40;99.90
7676;DHT22;3880;51.464;-2.566;2022-11-24T14:54:22;10.40;99.90
7676;DHT22;3880;51.464;-2.566;2022-11-24T14:56:58;10.30;99.90
7676;DHT22;3880;51.464;-2.566;2022-11-24T14:59:27;10.30;99.90
7676;DHT22;3880;51.464;-2.566;2022-11-24T15:01:56;10.30;99.90
7676;DHT22;3880;51.464;-2.566;2022-11-24T15:04:26;10.20;99.90
7676;DHT22;3880;51.464;-2.566;2022-11-24T15:07:03;10.20;99.90
7676;DHT22;3880;51.464;-2.566;2022-11-24T15:09:33;10.30;99.90
7676;DHT22;3880;51.464;-2.566;2022-11-24T15:12:09;10.30;99.90
7676;DHT22;3880;51.464;-2.566;2022-11-24T15:14:48;10.30;99.90
7676;DHT22;3880;51.464;-2.566;2022-11-24T15:17:18;10.20;99.90
7676;DHT22;3880;51.464;-2.566;2022-11-24T15:19:49;10.20;99.90
7676;DHT22;3880;51.464;-2.566;2022-11-24T15:22:36;10.20;99.90
7676;DHT22;3880;51.464;-2.566;2022-11-24T15:28:00;10.20;99.90
7676;DHT22;3880;51.464;-2.566;2022-11-24T15:30:28;10.20;99.90
7676;DHT22;3880;51.464;-2.566;2022-11-24T15:32:57;10.20;99.90
7676;DHT22;3880;51.464;-2.566;2022-11-24T15:35:30;10.20;99.90
7676;DHT22;3880;51.464;-2.566;2022-11-24T15:37:58;10.20;99.90
7676;DHT22;3880;51.464;-2.566;2022-11-24T15:40:25;10.20;99.90
7676;DHT22;3880;51.464;-2.566;2022-11-24T15:42:53;10.20;99.90
7676;DHT22;3880;51.464;-2.566;2022-11-24T15:45:24;10.10;99.90
7676;DHT22;3880;51.464;-2.566;2022-11-24T15:47:52;10.10;99.90
7676;DHT22;3880;51.464;-2.566;2022-11-24T15:50:19;10.10;99.90
7676;DHT22;3880;51.464;-2.566;2022-11-24T15:52:49;10.10;99.90
7676;DHT22;3880;51.464;-2.566;2022-11-24T15:55:18;10.10;99.90
7676;DHT22;3880;51.464;-2.566;2022-11-24T15:57:45;10.10;99.90
7676;DHT22;3880;51.464;-2.566;2022-11-24T16:00:15;10.00;99.90
7676;DHT22;3880;51.464;-2.566;2022-11-24T16:02:43;10.00;99.90
7676;DHT22;3880;51.464;-2.566;2022-11-24T16:05:11;9.90;99.90
7676;DHT22;3880;51.464;-2.566;2022-11-24T16:07:38;9.90;99.90
7676;DHT22;3880;51.464;-2.566;2022-11-24T16:10:14;9.80;99.90
7676;DHT22;3880;51.464;-2.566;2022-11-24T16:12:44;9.90;99.90
7676;DHT22;3880;51.464;-2.566;2022-11-24T16:15:11;9.80;99.90
7676;DHT22;3880;51.464;-2.566;2022-11-24T16:17:38;9.80;99.90
7676;DHT22;3880;51.464;-2.566;2022-11-24T16:20:06;9.80;99.90
7676;DHT22;3880;51.464;-2.566;2022-11-24T16:22:34;9.80;99.90
7676;DHT22;3880;51.464;-2.566;2022-11-24T16:25:01;9.70;99.90
7676;DHT22;3880;51.464;-2.566;2022-11-24T16:27:30;9.70;99.90
7676;DHT22;3880;51.464;-2.566;2022-11-24T16:29:57;9.60;99.90
7676;DHT22;3880;51.464;-2.566;2022-11-24T16:32:26;9.60;99.90
7676;DHT22;3880;51.464;-2.566;2022-11-24T16:34:53;9.60;99.90
7676;DHT22;3880;51.464;-2.566;2022-11-24T16:37:20;9.60;99.90
7676;DHT22;3880;51.464;-2.566;2022-11-24T16:39:48;9.60;99.90
7676;DHT22;3880;51.464;-2.566;2022-11-24T16:42:15;9.50;99.90